sensor_id;sensor_type;location;lat;lon;timestamp;P1;durP1;ratioP1;P2;durP2;ratioP2
19780;SDS011;10050;55.492;13.506;2023-12-22T00:00:18;3.13;;;1.97;;
19780;SDS011;10050;55.492;13.506;2023-12-22T00:02:43;3.67;;;1.50;;
19780;SDS011;10050;55.492;13.506;2023-12-22T00:05:09;4.67;;;1.20;;
19780;SDS011;10050;55.492;13.506;2023-12-22T00:07:35;10.33;;;2.00;;
19780;SDS011;10050;55.492;13.506;2023-12-22T00:10:01;6.03;;;1.50;;
19780;SDS011;10050;55.492;13.506;2023-12-22T00:12:26;3.77;;;1.63;;
19780;SDS011;10050;55.492;13.506;2023-12-22T00:14:53;6.90;;;2.53;;
19780;SDS011;10050;55.492;13.506;2023-12-22T00:17:18;10.80;;;2.17;;
19780;SDS011;10050;55.492;13.506;2023-12-22T00:19:44;10.90;;;2.10;;
19780;SDS011;10050;55.492;13.506;2023-12-22T00:22:10;9.13;;;2.57;;
19780;SDS011;10050;55.492;13.506;2023-12-22T00:24:35;10.53;;;2.30;;
19780;SDS011;10050;55.492;13.506;2023-12-22T00:27:01;10.87;;;2.40;;
19780;SDS011;10050;55.492;13.506;2023-12-22T00:29:28;14.17;;;2.93;;
19780;SDS011;10050;55.492;13.506;2023-12-22T00:31:53;8.50;;;2.83;;
19780;SDS011;10050;55.492;13.506;2023-12-22T00:34:21;14.73;;;2.67;;
19780;SDS011;10050;55.492;13.506;2023-12-22T00:36:47;9.77;;;2.80;;
19780;SDS011;10050;55.492;13.506;2023-12-22T00:39:13;12.50;;;2.90;;
19780;SDS011;10050;55.492;13.506;2023-12-22T00:41:38;7.97;;;2.60;;
19780;SDS011;10050;55.492;13.506;2023-12-22T00:44:04;9.37;;;2.70;;
19780;SDS011;10050;55.492;13.506;2023-12-22T00:46:30;11.03;;;2.50;;
19780;SDS011;10050;55.492;13.506;2023-12-22T00:48:55;8.80;;;2.93;;
19780;SDS011;10050;55.492;13.506;2023-12-22T00:51:21;10.73;;;2.90;;
19780;SDS011;10050;55.492;13.506;2023-12-22T00:53:46;16.03;;;2.77;;
19780;SDS011;10050;55.492;13.506;2023-12-22T00:56:12;12.43;;;2.27;;
19780;SDS011;10050;55.492;13.506;2023-12-22T00:58:38;10.37;;;2.73;;
19780;SDS011;10050;55.492;13.506;2023-12-22T01:01:04;15.03;;;3.23;;
19780;SDS011;10050;55.492;13.506;2023-12-22T01:03:30;18.23;;;3.13;;
19780;SDS011;10050;55.492;13.506;2023-12-22T01:05:56;13.13;;;3.17;;
19780;SDS011;10050;55.492;13.506;2023-12-22T01:08:21;13.17;;;2.33;;
19780;SDS011;10050;55.492;13.506;2023-12-22T01:10:47;17.33;;;2.87;;
19780;SDS011;10050;55.492;13.506;2023-12-22T01:13:15;14.73;;;2.73;;
19780;SDS011;10050;55.492;13.506;2023-12-22T01:15:40;13.47;;;3.73;;
19780;SDS011;10050;55.492;13.506;2023-12-22T01:18:08;12.47;;;2.93;;
19780;SDS011;10050;55.492;13.506;2023-12-22T01:20:34;11.40;;;2.63;;
19780;SDS011;10050;55.492;13.506;2023-12-22T01:23:00;10.87;;;2.73;;
19780;SDS011;10050;55.492;13.506;2023-12-22T01:25:25;10.57;;;2.67;;
19780;SDS011;10050;55.492;13.506;2023-12-22T01:27:51;8.83;;;2.53;;
19780;SDS011;10050;55.492;13.506;2023-12-22T01:30:17;10.27;;;2.40;;
19780;SDS011;10050;55.492;13.506;2023-12-22T01:32:43;19.40;;;2.87;;
19780;SDS011;10050;55.492;13.506;2023-12-22T01:35:09;11.30;;;2.90;;
19780;SDS011;10050;55.492;13.506;2023-12-22T01:37:35;17.13;;;3.23;;
19780;SDS011;10050;55.492;13.506;2023-12-22T01:40:02;13.53;;;2.67;;
19780;SDS011;10050;55.492;13.506;2023-12-22T01:42:28;11.37;;;2.93;;
19780;SDS011;10050;55.492;13.506;2023-12-22T01:44:54;12.70;;;2.70;;
19780;SDS011;10050;55.492;13.506;2023-12-22T01:47:20;15.47;;;2.97;;
19780;SDS011;10050;55.492;13.506;2023-12-22T01:49:46;11.97;;;3.13;;
19780;SDS011;10050;55.492;13.506;2023-12-22T01:52:12;11.37;;;3.23;;
19780;SDS011;10050;55.492;13.506;2023-12-22T01:54:38;12.80;;;2.63;;
19780;SDS011;10050;55.492;13.506;2023-12-22T01:57:04;13.57;;;3.00;;
19780;SDS011;10050;55.492;13.506;2023-12-22T01:59:30;12.63;;;2.00;;
19780;SDS011;10050;55.492;13.506;2023-12-22T02:01:59;9.30;;;2.90;;
19780;SDS011;10050;55.492;13.506;2023-12-22T02:04:26;11.97;;;2.63;;
19780;SDS011;10050;55.492;13.506;2023-12-22T02:06:52;13.40;;;3.30;;
19780;SDS011;10050;55.492;13.506;2023-12-22T02:09:18;11.90;;;3.67;;
19780;SDS011;10050;55.492;13.506;2023-12-22T02:11:44;11.73;;;2.83;;
19780;SDS011;10050;55.492;13.506;2023-12-22T02:14:09;13.50;;;2.97;;
19780;SDS011;10050;55.492;13.506;2023-12-22T02:19:04;11.67;;;2.53;;
19780;SDS011;10050;55.492;13.506;2023-12-22T02:22:05;15.30;;;3.30;;
19780;SDS011;10050;55.492;13.506;2023-12-22T02:24:32;12.00;;;2.70;;
19780;SDS011;10050;55.492;13.506;2023-12-22T02:27:05;11.43;;;2.83;;
19780;SDS011;10050;55.492;13.506;2023-12-22T02:29:37;9.37;;;2.33;;
19780;SDS011;10050;55.492;13.506;2023-12-22T02:32:07;15.13;;;3.13;;
19780;SDS011;10050;55.492;13.506;2023-12-22T02:34:39;9.53;;;2.53;;
19780;SDS011;10050;55.492;13.506;2023-12-22T02:37:08;12.40;;;2.63;;
19780;SDS011;10050;55.492;13.506;2023-12-22T02:39:35;10.47;;;2.57;;
19780;SDS011;10050;55.492;13.506;2023-12-22T02:42:02;9.97;;;2.80;;
19780;SDS011;10050;55.492;13.506;2023-12-22T02:44:29;9.43;;;2.37;;
19780;SDS011;10050;55.492;13.506;2023-12-22T02:46:55;9.70;;;2.47;;
19780;SDS011;10050;55.492;13.506;2023-12-22T02:49:21;10.83;;;2.70;;
19780;SDS011;10050;55.492;13.506;2023-12-22T02:51:46;16.77;;;2.70;;
19780;SDS011;10050;55.492;13.506;2023-12-22T02:54:12;9.83;;;3.03;;
19780;SDS011;10050;55.492;13.506;2023-12-22T02:56:37;14.30;;;2.47;;
19780;SDS011;10050;55.492;13.506;2023-12-22T02:59:03;9.67;;;2.47;;
19780;SDS011;10050;55.492;13.506;2023-12-22T03:01:29;11.23;;;2.80;;
19780;SDS011;10050;55.492;13.506;2023-12-22T03:03:54;15.13;;;3.20;;
19780;SDS011;10050;55.492;13.506;2023-12-22T03:06:20;13.30;;;3.17;;
19780;SDS011;10050;55.492;13.506;2023-12-22T03:08:45;15.20;;;2.77;;
19780;SDS011;10050;55.492;13.506;2023-12-22T03:11:11;8.63;;;3.00;;
19780;SDS011;10050;55.492;13.506;2023-12-22T03:13:36;11.53;;;3.33;;
19780;SDS011;10050;55.492;13.506;2023-12-22T03:16:02;13.20;;;3.17;;
19780;SDS011;10050;55.492;13.506;2023-12-22T03:18:32;10.00;;;3.03;;
19780;SDS011;10050;55.492;13.506;2023-12-22T03:20:58;13.77;;;3.17;;
19780;SDS011;10050;55.492;13.506;2023-12-22T03:23:23;11.70;;;2.53;;
19780;SDS011;10050;55.492;13.506;2023-12-22T03:25:49;11.33;;;3.10;;
19780;SDS011;10050;55.492;13.506;2023-12-22T03:28:15;13.90;;;3.00;;
19780;SDS011;10050;55.492;13.506;2023-12-22T03:30:40;11.47;;;3.03;;
19780;SDS011;10050;55.492;13.506;2023-12-22T03:33:06;12.70;;;2.87;;
19780;SDS011;10050;55.492;13.506;2023-12-22T03:35:32;13.40;;;2.77;;
19780;SDS011;10050;55.492;13.506;2023-12-22T03:37:57;15.83;;;3.20;;
19780;SDS011;10050;55.492;13.506;2023-12-22T03:40:23;13.37;;;3.23;;
19780;SDS011;10050;55.492;13.506;2023-12-22T03:42:48;15.10;;;3.23;;
19780;SDS011;10050;55.492;13.506;2023-12-22T03:45:14;10.97;;;2.97;;
19780;SDS011;10050;55.492;13.506;2023-12-22T03:47:39;11.40;;;3.73;;
19780;SDS011;10050;55.492;13.506;2023-12-22T03:50:05;12.77;;;2.93;;
19780;SDS011;10050;55.492;13.506;2023-12-22T03:52:32;10.13;;;3.87;;
19780;SDS011;10050;55.492;13.506;2023-12-22T03:54:57;11.67;;;2.83;;
19780;SDS011;10050;55.492;13.506;2023-12-22T03:57:23;10.20;;;2.50;;
19780;SDS011;10050;55.492;13.506;2023-12-22T03:59:48;12.50;;;3.50;;
19780;SDS011;10050;55.492;13.506;2023-12-22T04:02:14;12.13;;;2.80;;
19780;SDS011;10050;55.492;13.506;2023-12-22T04:04:40;16.97;;;2.93;;
19780;SDS011;10050;55.492;13.506;2023-12-22T04:07:06;17.57;;;2.83;;
19780;SDS011;10050;55.492;13.506;2023-12-22T04:09:31;20.17;;;3.67;;
19780;SDS011;10050;55.492;13.506;2023-12-22T04:11:57;16.73;;;2.77;;
19780;SDS011;10050;55.492;13.506;2023-12-22T04:14:22;15.33;;;3.60;;
19780;SDS011;10050;55.492;13.506;2023-12-22T04:16:48;9.80;;;3.17;;
19780;SDS011;10050;55.492;13.506;2023-12-22T04:19:13;11.90;;;2.70;;
19780;SDS011;10050;55.492;13.506;2023-12-22T04:21:39;11.73;;;2.53;;
19780;SDS011;10050;55.492;13.506;2023-12-22T04:24:05;15.03;;;2.97;;
19780;SDS011;10050;55.492;13.506;2023-12-22T04:26:30;12.10;;;2.47;;
19780;SDS011;10050;55.492;13.506;2023-12-22T04:28:56;19.67;;;3.93;;
19780;SDS011;10050;55.492;13.506;2023-12-22T04:31:22;12.60;;;2.50;;
19780;SDS011;10050;55.492;13.506;2023-12-22T04:33:47;11.73;;;3.00;;
19780;SDS011;10050;55.492;13.506;2023-12-22T04:36:13;13.03;;;2.80;;
19780;SDS011;10050;55.492;13.506;2023-12-22T04:38:38;12.87;;;2.80;;
19780;SDS011;10050;55.492;13.506;2023-12-22T04:41:05;11.80;;;2.90;;
19780;SDS011;10050;55.492;13.506;2023-12-22T04:43:31;13.73;;;3.30;;
19780;SDS011;10050;55.492;13.506;2023-12-22T04:45:57;10.23;;;2.03;;
19780;SDS011;10050;55.492;13.506;2023-12-22T04:48:22;8.97;;;2.63;;
19780;SDS011;10050;55.492;13.506;2023-12-22T04:50:48;9.20;;;2.73;;
19780;SDS011;10050;55.492;13.506;2023-12-22T04:53:13;10.50;;;2.40;;
19780;SDS011;10050;55.492;13.506;2023-12-22T04:55:39;11.27;;;2.80;;
19780;SDS011;10050;55.492;13.506;2023-12-22T04:58:05;7.17;;;2.43;;
19780;SDS011;10050;55.492;13.506;2023-12-22T05:00:30;12.70;;;3.03;;
19780;SDS011;10050;55.492;13.506;2023-12-22T05:02:56;14.67;;;3.13;;
19780;SDS011;10050;55.492;13.506;2023-12-22T05:05:21;11.10;;;2.20;;
19780;SDS011;10050;55.492;13.506;2023-12-22T05:07:47;13.53;;;2.60;;
19780;SDS011;10050;55.492;13.506;2023-12-22T05:10:13;14.63;;;3.63;;
19780;SDS011;10050;55.492;13.506;2023-12-22T05:12:39;13.37;;;3.00;;
19780;SDS011;10050;55.492;13.506;2023-12-22T05:15:05;10.77;;;3.13;;
19780;SDS011;10050;55.492;13.506;2023-12-22T05:17:31;9.77;;;2.80;;
19780;SDS011;10050;55.492;13.506;2023-12-22T05:19:57;6.90;;;2.43;;
19780;SDS011;10050;55.492;13.506;2023-12-22T05:22:23;12.73;;;2.73;;
19780;SDS011;10050;55.492;13.506;2023-12-22T05:24:49;8.47;;;2.47;;
19780;SDS011;10050;55.492;13.506;2023-12-22T05:27:14;14.07;;;3.07;;
19780;SDS011;10050;55.492;13.506;2023-12-22T05:29:40;12.77;;;2.93;;
19780;SDS011;10050;55.492;13.506;2023-12-22T05:32:05;12.90;;;2.77;;
19780;SDS011;10050;55.492;13.506;2023-12-22T05:34:31;8.63;;;2.87;;
19780;SDS011;10050;55.492;13.506;2023-12-22T05:36:57;14.33;;;2.53;;
19780;SDS011;10050;55.492;13.506;2023-12-22T05:39:23;12.60;;;2.27;;
19780;SDS011;10050;55.492;13.506;2023-12-22T05:41:48;6.50;;;2.47;;
19780;SDS011;10050;55.492;13.506;2023-12-22T05:44:14;10.77;;;2.80;;
19780;SDS011;10050;55.492;13.506;2023-12-22T05:46:39;11.90;;;2.70;;
19780;SDS011;10050;55.492;13.506;2023-12-22T05:49:05;13.70;;;2.93;;
19780;SDS011;10050;55.492;13.506;2023-12-22T05:51:37;16.03;;;3.17;;
19780;SDS011;10050;55.492;13.506;2023-12-22T05:54:04;10.33;;;2.33;;
19780;SDS011;10050;55.492;13.506;2023-12-22T05:56:32;12.70;;;2.40;;
19780;SDS011;10050;55.492;13.506;2023-12-22T05:58:58;12.90;;;2.50;;
19780;SDS011;10050;55.492;13.506;2023-12-22T06:01:24;11.33;;;2.30;;
19780;SDS011;10050;55.492;13.506;2023-12-22T06:03:50;7.17;;;2.23;;
19780;SDS011;10050;55.492;13.506;2023-12-22T06:06:15;8.50;;;2.27;;
19780;SDS011;10050;55.492;13.506;2023-12-22T06:08:41;6.83;;;2.37;;
19780;SDS011;10050;55.492;13.506;2023-12-22T06:11:07;5.30;;;2.40;;
19780;SDS011;10050;55.492;13.506;2023-12-22T06:13:33;8.67;;;2.20;;
19780;SDS011;10050;55.492;13.506;2023-12-22T06:15:58;8.77;;;2.47;;
19780;SDS011;10050;55.492;13.506;2023-12-22T06:18:24;10.20;;;2.10;;
19780;SDS011;10050;55.492;13.506;2023-12-22T06:20:49;5.73;;;1.97;;
19780;SDS011;10050;55.492;13.506;2023-12-22T06:23:15;12.93;;;2.50;;
19780;SDS011;10050;55.492;13.506;2023-12-22T06:25:41;9.17;;;2.33;;
19780;SDS011;10050;55.492;13.506;2023-12-22T06:28:06;8.53;;;2.03;;
19780;SDS011;10050;55.492;13.506;2023-12-22T06:30:32;7.17;;;1.60;;
19780;SDS011;10050;55.492;13.506;2023-12-22T06:32:57;6.67;;;1.97;;
19780;SDS011;10050;55.492;13.506;2023-12-22T06:35:23;4.27;;;1.50;;
19780;SDS011;10050;55.492;13.506;2023-12-22T06:37:50;8.03;;;1.80;;
19780;SDS011;10050;55.492;13.506;2023-12-22T06:40:16;6.63;;;1.90;;
19780;SDS011;10050;55.492;13.506;2023-12-22T06:42:43;5.60;;;1.80;;
19780;SDS011;10050;55.492;13.506;2023-12-22T06:45:09;5.33;;;1.70;;
19780;SDS011;10050;55.492;13.506;2023-12-22T06:47:35;5.67;;;1.70;;
19780;SDS011;10050;55.492;13.506;2023-12-22T06:50:01;6.93;;;1.80;;
19780;SDS011;10050;55.492;13.506;2023-12-22T06:52:27;7.30;;;1.90;;
19780;SDS011;10050;55.492;13.506;2023-12-22T06:54:53;3.17;;;1.70;;
19780;SDS011;10050;55.492;13.506;2023-12-22T06:57:19;7.43;;;2.03;;
19780;SDS011;10050;55.492;13.506;2023-12-22T06:59:45;3.73;;;2.10;;
19780;SDS011;10050;55.492;13.506;2023-12-22T07:02:13;7.90;;;1.87;;
19780;SDS011;10050;55.492;13.506;2023-12-22T07:04:38;3.33;;;1.60;;
19780;SDS011;10050;55.492;13.506;2023-12-22T07:07:04;5.87;;;2.00;;
19780;SDS011;10050;55.492;13.506;2023-12-22T07:09:30;8.20;;;1.87;;
19780;SDS011;10050;55.492;13.506;2023-12-22T07:11:56;5.73;;;2.17;;
19780;SDS011;10050;55.492;13.506;2023-12-22T07:14:22;4.10;;;1.53;;
19780;SDS011;10050;55.492;13.506;2023-12-22T07:16:47;4.17;;;1.87;;
19780;SDS011;10050;55.492;13.506;2023-12-22T07:19:13;2.53;;;1.57;;
19780;SDS011;10050;55.492;13.506;2023-12-22T07:21:39;3.73;;;1.93;;
19780;SDS011;10050;55.492;13.506;2023-12-22T07:24:05;2.83;;;1.70;;
19780;SDS011;10050;55.492;13.506;2023-12-22T07:26:31;2.57;;;1.57;;
19780;SDS011;10050;55.492;13.506;2023-12-22T07:28:56;2.67;;;1.47;;
19780;SDS011;10050;55.492;13.506;2023-12-22T07:31:23;3.07;;;1.83;;
19780;SDS011;10050;55.492;13.506;2023-12-22T07:33:49;2.70;;;1.57;;
19780;SDS011;10050;55.492;13.506;2023-12-22T07:36:15;4.07;;;1.53;;
19780;SDS011;10050;55.492;13.506;2023-12-22T07:38:40;4.93;;;2.43;;
19780;SDS011;10050;55.492;13.506;2023-12-22T07:41:06;5.17;;;2.50;;
19780;SDS011;10050;55.492;13.506;2023-12-22T07:43:32;4.73;;;2.20;;
19780;SDS011;10050;55.492;13.506;2023-12-22T07:45:58;6.37;;;2.13;;
19780;SDS011;10050;55.492;13.506;2023-12-22T07:48:23;5.13;;;2.27;;
19780;SDS011;10050;55.492;13.506;2023-12-22T07:50:49;6.70;;;2.60;;
19780;SDS011;10050;55.492;13.506;2023-12-22T07:53:15;4.47;;;2.10;;
19780;SDS011;10050;55.492;13.506;2023-12-22T07:55:41;5.97;;;2.50;;
19780;SDS011;10050;55.492;13.506;2023-12-22T07:58:08;6.97;;;2.43;;
19780;SDS011;10050;55.492;13.506;2023-12-22T08:00:33;10.50;;;3.10;;
19780;SDS011;10050;55.492;13.506;2023-12-22T08:02:59;9.03;;;2.27;;
19780;SDS011;10050;55.492;13.506;2023-12-22T08:05:25;6.67;;;2.70;;
19780;SDS011;10050;55.492;13.506;2023-12-22T08:07:51;8.30;;;2.53;;
19780;SDS011;10050;55.492;13.506;2023-12-22T08:10:17;7.57;;;2.83;;
19780;SDS011;10050;55.492;13.506;2023-12-22T08:12:42;6.40;;;2.37;;
19780;SDS011;10050;55.492;13.506;2023-12-22T08:15:08;7.03;;;2.30;;
19780;SDS011;10050;55.492;13.506;2023-12-22T08:17:37;4.80;;;2.23;;
19780;SDS011;10050;55.492;13.506;2023-12-22T08:20:05;12.03;;;2.80;;
19780;SDS011;10050;55.492;13.506;2023-12-22T08:22:33;5.37;;;2.13;;
19780;SDS011;10050;55.492;13.506;2023-12-22T08:24:59;10.17;;;2.40;;
19780;SDS011;10050;55.492;13.506;2023-12-22T08:27:24;12.47;;;2.93;;
19780;SDS011;10050;55.492;13.506;2023-12-22T08:29:50;10.37;;;3.10;;
19780;SDS011;10050;55.492;13.506;2023-12-22T08:32:15;11.40;;;3.20;;
19780;SDS011;10050;55.492;13.506;2023-12-22T08:34:41;4.00;;;2.50;;
19780;SDS011;10050;55.492;13.506;2023-12-22T08:37:06;13.00;;;2.60;;
19780;SDS011;10050;55.492;13.506;2023-12-22T08:39:32;11.33;;;2.67;;
19780;SDS011;10050;55.492;13.506;2023-12-22T08:41:58;6.53;;;2.43;;
19780;SDS011;10050;55.492;13.506;2023-12-22T08:44:23;8.17;;;3.00;;
19780;SDS011;10050;55.492;13.506;2023-12-22T08:46:49;10.67;;;2.77;;
19780;SDS011;10050;55.492;13.506;2023-12-22T08:49:15;10.60;;;3.77;;
19780;SDS011;10050;55.492;13.506;2023-12-22T08:51:40;8.97;;;2.40;;
19780;SDS011;10050;55.492;13.506;2023-12-22T08:54:06;10.27;;;3.47;;
19780;SDS011;10050;55.492;13.506;2023-12-22T08:56:31;10.27;;;2.70;;
19780;SDS011;10050;55.492;13.506;2023-12-22T08:58:57;10.87;;;2.83;;
19780;SDS011;10050;55.492;13.506;2023-12-22T09:01:26;8.47;;;2.40;;
19780;SDS011;10050;55.492;13.506;2023-12-22T09:03:51;5.27;;;2.43;;
19780;SDS011;10050;55.492;13.506;2023-12-22T09:06:18;8.67;;;2.67;;
19780;SDS011;10050;55.492;13.506;2023-12-22T09:08:46;7.03;;;2.50;;
19780;SDS011;10050;55.492;13.506;2023-12-22T09:11:12;13.10;;;2.67;;
19780;SDS011;10050;55.492;13.506;2023-12-22T09:13:39;11.70;;;2.93;;
19780;SDS011;10050;55.492;13.506;2023-12-22T09:16:06;7.37;;;2.30;;
19780;SDS011;10050;55.492;13.506;2023-12-22T09:18:32;9.83;;;2.70;;
19780;SDS011;10050;55.492;13.506;2023-12-22T09:20:58;11.07;;;3.23;;
19780;SDS011;10050;55.492;13.506;2023-12-22T09:23:24;8.87;;;2.73;;
19780;SDS011;10050;55.492;13.506;2023-12-22T09:25:50;8.90;;;3.63;;
19780;SDS011;10050;55.492;13.506;2023-12-22T09:28:15;10.17;;;3.03;;
19780;SDS011;10050;55.492;13.506;2023-12-22T09:30:41;8.80;;;3.07;;
19780;SDS011;10050;55.492;13.506;2023-12-22T09:33:07;3.77;;;2.50;;
19780;SDS011;10050;55.492;13.506;2023-12-22T09:35:36;6.57;;;2.50;;
19780;SDS011;10050;55.492;13.506;2023-12-22T09:38:02;6.00;;;2.53;;
19780;SDS011;10050;55.492;13.506;2023-12-22T09:40:28;11.93;;;2.83;;
19780;SDS011;10050;55.492;13.506;2023-12-22T09:42:55;9.47;;;2.93;;
19780;SDS011;10050;55.492;13.506;2023-12-22T09:45:22;9.90;;;2.50;;
19780;SDS011;10050;55.492;13.506;2023-12-22T09:47:48;11.67;;;3.13;;
19780;SDS011;10050;55.492;13.506;2023-12-22T09:50:16;5.80;;;2.33;;
19780;SDS011;10050;55.492;13.506;2023-12-22T09:52:43;7.87;;;2.97;;
19780;SDS011;10050;55.492;13.506;2023-12-22T09:55:09;10.33;;;2.67;;
19780;SDS011;10050;55.492;13.506;2023-12-22T09:57:37;4.30;;;2.47;;
19780;SDS011;10050;55.492;13.506;2023-12-22T10:00:08;7.83;;;2.57;;
19780;SDS011;10050;55.492;13.506;2023-12-22T10:02:35;7.70;;;2.67;;
19780;SDS011;10050;55.492;13.506;2023-12-22T10:05:02;6.83;;;2.40;;
19780;SDS011;10050;55.492;13.506;2023-12-22T10:07:28;5.80;;;2.43;;
19780;SDS011;10050;55.492;13.506;2023-12-22T10:09:55;5.30;;;2.60;;
19780;SDS011;10050;55.492;13.506;2023-12-22T10:12:22;7.33;;;1.83;;
19780;SDS011;10050;55.492;13.506;2023-12-22T10:14:49;4.63;;;2.43;;
19780;SDS011;10050;55.492;13.506;2023-12-22T10:17:16;7.87;;;2.10;;
19780;SDS011;10050;55.492;13.506;2023-12-22T10:19:42;5.27;;;1.80;;
19780;SDS011;10050;55.492;13.506;2023-12-22T10:22:08;4.40;;;2.40;;
19780;SDS011;10050;55.492;13.506;2023-12-22T10:24:40;5.30;;;2.57;;
19780;SDS011;10050;55.492;13.506;2023-12-22T10:27:11;8.60;;;2.33;;
19780;SDS011;10050;55.492;13.506;2023-12-22T10:29:38;8.77;;;3.07;;
19780;SDS011;10050;55.492;13.506;2023-12-22T10:32:05;7.67;;;2.70;;
19780;SDS011;10050;55.492;13.506;2023-12-22T10:34:31;10.87;;;2.60;;
19780;SDS011;10050;55.492;13.506;2023-12-22T10:37:00;8.00;;;2.60;;
19780;SDS011;10050;55.492;13.506;2023-12-22T10:39:27;6.73;;;2.43;;
19780;SDS011;10050;55.492;13.506;2023-12-22T10:41:54;4.67;;;2.53;;
19780;SDS011;10050;55.492;13.506;2023-12-22T10:44:20;7.50;;;2.50;;
19780;SDS011;10050;55.492;13.506;2023-12-22T10:46:48;7.03;;;2.13;;
19780;SDS011;10050;55.492;13.506;2023-12-22T10:49:14;6.80;;;2.33;;
19780;SDS011;10050;55.492;13.506;2023-12-22T10:51:40;6.17;;;2.20;;
19780;SDS011;10050;55.492;13.506;2023-12-22T10:54:07;5.47;;;2.07;;
19780;SDS011;10050;55.492;13.506;2023-12-22T10:56:33;9.50;;;2.23;;
19780;SDS011;10050;55.492;13.506;2023-12-22T10:58:59;2.87;;;1.63;;
19780;SDS011;10050;55.492;13.506;2023-12-22T11:01:29;10.70;;;2.20;;
19780;SDS011;10050;55.492;13.506;2023-12-22T11:03:56;5.00;;;2.13;;
19780;SDS011;10050;55.492;13.506;2023-12-22T11:06:26;12.23;;;2.20;;
19780;SDS011;10050;55.492;13.506;2023-12-22T11:08:54;8.83;;;2.53;;
19780;SDS011;10050;55.492;13.506;2023-12-22T11:11:32;4.17;;;2.30;;
19780;SDS011;10050;55.492;13.506;2023-12-22T11:13:59;4.63;;;2.20;;
19780;SDS011;10050;55.492;13.506;2023-12-22T11:16:27;4.07;;;2.00;;
19780;SDS011;10050;55.492;13.506;2023-12-22T11:18:54;7.40;;;1.90;;
19780;SDS011;10050;55.492;13.506;2023-12-22T11:21:23;4.20;;;2.23;;
19780;SDS011;10050;55.492;13.506;2023-12-22T11:23:50;6.83;;;2.23;;
19780;SDS011;10050;55.492;13.506;2023-12-22T11:26:17;3.47;;;2.00;;
19780;SDS011;10050;55.492;13.506;2023-12-22T11:28:47;7.27;;;2.70;;
19780;SDS011;10050;55.492;13.506;2023-12-22T11:31:14;5.73;;;2.40;;
19780;SDS011;10050;55.492;13.506;2023-12-22T11:33:43;4.23;;;2.10;;
19780;SDS011;10050;55.492;13.506;2023-12-22T11:36:13;3.57;;;1.70;;
19780;SDS011;10050;55.492;13.506;2023-12-22T11:38:40;5.20;;;2.27;;
19780;SDS011;10050;55.492;13.506;2023-12-22T11:41:07;4.10;;;2.07;;
19780;SDS011;10050;55.492;13.506;2023-12-22T11:43:40;5.00;;;2.03;;
19780;SDS011;10050;55.492;13.506;2023-12-22T11:46:07;6.93;;;2.13;;
19780;SDS011;10050;55.492;13.506;2023-12-22T11:48:34;10.33;;;2.63;;
19780;SDS011;10050;55.492;13.506;2023-12-22T11:51:00;5.63;;;2.00;;
19780;SDS011;10050;55.492;13.506;2023-12-22T11:53:27;4.20;;;1.93;;
19780;SDS011;10050;55.492;13.506;2023-12-22T12:01:02;5.57;;;2.10;;
19780;SDS011;10050;55.492;13.506;2023-12-22T12:03:30;6.00;;;2.33;;
19780;SDS011;10050;55.492;13.506;2023-12-22T12:08:52;3.37;;;1.70;;
19780;SDS011;10050;55.492;13.506;2023-12-22T12:11:19;4.70;;;2.00;;
19780;SDS011;10050;55.492;13.506;2023-12-22T12:13:45;5.60;;;1.67;;
19780;SDS011;10050;55.492;13.506;2023-12-22T12:16:12;2.93;;;1.40;;
19780;SDS011;10050;55.492;13.506;2023-12-22T12:18:47;4.67;;;1.53;;
19780;SDS011;10050;55.492;13.506;2023-12-22T12:21:12;4.43;;;1.50;;
19780;SDS011;10050;55.492;13.506;2023-12-22T12:23:40;3.83;;;1.70;;
19780;SDS011;10050;55.492;13.506;2023-12-22T12:26:07;4.00;;;1.77;;
19780;SDS011;10050;55.492;13.506;2023-12-22T12:28:34;4.23;;;1.43;;
19780;SDS011;10050;55.492;13.506;2023-12-22T12:31:03;2.80;;;1.87;;
19780;SDS011;10050;55.492;13.506;2023-12-22T12:33:30;5.80;;;1.60;;
19780;SDS011;10050;55.492;13.506;2023-12-22T12:35:57;6.20;;;2.03;;
19780;SDS011;10050;55.492;13.506;2023-12-22T12:39:09;8.80;;;2.03;;
19780;SDS011;10050;55.492;13.506;2023-12-22T12:41:19;5.33;;;1.33;;
19780;SDS011;10050;55.492;13.506;2023-12-22T12:44:00;7.37;;;1.87;;
19780;SDS011;10050;55.492;13.506;2023-12-22T12:46:37;5.80;;;2.07;;
19780;SDS011;10050;55.492;13.506;2023-12-22T12:49:07;5.53;;;1.50;;
19780;SDS011;10050;55.492;13.506;2023-12-22T12:51:37;4.90;;;2.07;;
19780;SDS011;10050;55.492;13.506;2023-12-22T12:54:04;6.90;;;1.93;;
19780;SDS011;10050;55.492;13.506;2023-12-22T12:56:39;3.90;;;1.77;;
19780;SDS011;10050;55.492;13.506;2023-12-22T12:59:09;2.23;;;1.57;;
19780;SDS011;10050;55.492;13.506;2023-12-22T13:01:39;5.13;;;1.70;;
19780;SDS011;10050;55.492;13.506;2023-12-22T13:04:05;5.47;;;1.40;;
19780;SDS011;10050;55.492;13.506;2023-12-22T13:06:31;4.00;;;1.63;;
19780;SDS011;10050;55.492;13.506;2023-12-22T13:08:58;5.23;;;1.70;;
19780;SDS011;10050;55.492;13.506;2023-12-22T13:11:24;2.50;;;1.60;;
19780;SDS011;10050;55.492;13.506;2023-12-22T13:13:52;3.53;;;1.53;;
19780;SDS011;10050;55.492;13.506;2023-12-22T13:16:18;7.70;;;2.10;;
19780;SDS011;10050;55.492;13.506;2023-12-22T13:18:48;3.37;;;1.97;;
19780;SDS011;10050;55.492;13.506;2023-12-22T13:21:14;3.33;;;1.50;;
19780;SDS011;10050;55.492;13.506;2023-12-22T13:23:40;5.60;;;1.67;;
19780;SDS011;10050;55.492;13.506;2023-12-22T13:26:06;5.90;;;1.90;;
19780;SDS011;10050;55.492;13.506;2023-12-22T13:28:42;7.87;;;2.70;;
19780;SDS011;10050;55.492;13.506;2023-12-22T13:31:10;6.43;;;2.10;;
19780;SDS011;10050;55.492;13.506;2023-12-22T13:33:38;6.97;;;3.23;;
19780;SDS011;10050;55.492;13.506;2023-12-22T13:36:05;5.60;;;1.70;;
19780;SDS011;10050;55.492;13.506;2023-12-22T13:38:31;9.77;;;2.63;;
19780;SDS011;10050;55.492;13.506;2023-12-22T13:40:57;7.63;;;1.63;;
19780;SDS011;10050;55.492;13.506;2023-12-22T13:43:27;11.97;;;2.27;;
19780;SDS011;10050;55.492;13.506;2023-12-22T13:45:55;6.77;;;1.93;;
19780;SDS011;10050;55.492;13.506;2023-12-22T13:48:22;2.53;;;1.50;;
19780;SDS011;10050;55.492;13.506;2023-12-22T13:50:57;10.03;;;2.50;;
19780;SDS011;10050;55.492;13.506;2023-12-22T13:53:24;12.87;;;1.93;;
19780;SDS011;10050;55.492;13.506;2023-12-22T13:55:54;5.83;;;2.00;;
19780;SDS011;10050;55.492;13.506;2023-12-22T13:58:23;12.20;;;1.60;;
19780;SDS011;10050;55.492;13.506;2023-12-22T14:00:49;8.77;;;2.37;;
19780;SDS011;10050;55.492;13.506;2023-12-22T14:03:15;9.17;;;2.13;;
19780;SDS011;10050;55.492;13.506;2023-12-22T14:05:42;5.77;;;1.90;;
19780;SDS011;10050;55.492;13.506;2023-12-22T14:08:08;8.87;;;2.47;;
19780;SDS011;10050;55.492;13.506;2023-12-22T14:10:34;6.07;;;2.00;;
19780;SDS011;10050;55.492;13.506;2023-12-22T14:12:59;5.53;;;1.80;;
19780;SDS011;10050;55.492;13.506;2023-12-22T14:15:25;9.77;;;2.07;;
19780;SDS011;10050;55.492;13.506;2023-12-22T14:17:54;8.40;;;2.03;;
19780;SDS011;10050;55.492;13.506;2023-12-22T14:20:20;6.90;;;1.93;;
19780;SDS011;10050;55.492;13.506;2023-12-22T14:22:46;9.23;;;2.10;;
19780;SDS011;10050;55.492;13.506;2023-12-22T14:25:12;10.83;;;2.37;;
19780;SDS011;10050;55.492;13.506;2023-12-22T14:27:37;7.60;;;2.10;;
19780;SDS011;10050;55.492;13.506;2023-12-22T14:30:03;7.10;;;2.10;;
19780;SDS011;10050;55.492;13.506;2023-12-22T14:32:29;5.07;;;1.47;;
19780;SDS011;10050;55.492;13.506;2023-12-22T14:34:55;10.53;;;2.57;;